sensor_id;sensor_type;location;lat;lon;timestamp;P1;durP1;ratioP1;P2;durP2;ratioP2
55224;SDS011;41091;49.400;8.684;2022-09-30T00:02:06;7.18;;;1.27;;
55224;SDS011;41091;49.400;8.684;2022-09-30T00:04:34;4.30;;;1.50;;
55224;SDS011;41091;49.400;8.684;2022-09-30T00:07:03;2.90;;;1.67;;
55224;SDS011;41091;49.400;8.684;2022-09-30T00:09:28;5.18;;;1.08;;
55224;SDS011;41091;49.400;8.684;2022-09-30T00:11:56;4.72;;;1.50;;
55224;SDS011;41091;49.400;8.684;2022-09-30T00:14:21;1.70;;;1.17;;
55224;SDS011;41091;49.400;8.684;2022-09-30T00:16:47;1.45;;;1.35;;
55224;SDS011;41091;49.400;8.684;2022-09-30T00:19:13;2.75;;;1.70;;
55224;SDS011;41091;49.400;8.684;2022-09-30T00:21:43;3.60;;;1.70;;
55224;SDS011;41091;49.400;8.684;2022-09-30T00:24:12;2.35;;;1.73;;
55224;SDS011;41091;49.400;8.684;2022-09-30T00:26:37;4.80;;;2.17;;
55224;SDS011;41091;49.400;8.684;2022-09-30T00:29:05;3.10;;;1.75;;
55224;SDS011;41091;49.400;8.684;2022-09-30T00:31:33;8.35;;;1.45;;
55224;SDS011;41091;49.400;8.684;2022-09-30T00:34:02;2.30;;;1.60;;
55224;SDS011;41091;49.400;8.684;2022-09-30T00:36:31;4.07;;;1.70;;
55224;SDS011;41091;49.400;8.684;2022-09-30T00:39:01;5.20;;;2.08;;
55224;SDS011;41091;49.400;8.684;2022-09-30T00:41:27;5.45;;;2.00;;
55224;SDS011;41091;49.400;8.684;2022-09-30T00:43:55;3.53;;;1.92;;
55224;SDS011;41091;49.400;8.684;2022-09-30T00:49:05;4.88;;;1.90;;
55224;SDS011;41091;49.400;8.684;2022-09-30T00:51:40;4.30;;;2.65;;
55224;SDS011;41091;49.400;8.684;2022-09-30T00:54:27;2.10;;;1.70;;
55224;SDS011;41091;49.400;8.684;2022-09-30T00:56:58;6.40;;;1.95;;
55224;SDS011;41091;49.400;8.684;2022-09-30T00:59:37;2.33;;;2.13;;
55224;SDS011;41091;49.400;8.684;2022-09-30T01:02:06;11.07;;;2.72;;
55224;SDS011;41091;49.400;8.684;2022-09-30T01:04:34;2.58;;;2.17;;
55224;SDS011;41091;49.400;8.684;2022-09-30T01:07:00;5.25;;;2.63;;
55224;SDS011;41091;49.400;8.684;2022-09-30T01:09:27;12.95;;;2.60;;
55224;SDS011;41091;49.400;8.684;2022-09-30T01:11:55;2.10;;;1.90;;
55224;SDS011;41091;49.400;8.684;2022-09-30T01:14:22;12.65;;;2.38;;
55224;SDS011;41091;49.400;8.684;2022-09-30T01:16:51;4.15;;;2.05;;
55224;SDS011;41091;49.400;8.684;2022-09-30T01:22:13;2.85;;;1.60;;
55224;SDS011;41091;49.400;8.684;2022-09-30T01:25:03;4.65;;;1.38;;
55224;SDS011;41091;49.400;8.684;2022-09-30T01:28:19;2.40;;;1.67;;
55224;SDS011;41091;49.400;8.684;2022-09-30T01:40:02;2.60;;;1.58;;
55224;SDS011;41091;49.400;8.684;2022-09-30T01:53:05;2.75;;;2.00;;
55224;SDS011;41091;49.400;8.684;2022-09-30T01:58:38;10.30;;;1.65;;
55224;SDS011;41091;49.400;8.684;2022-09-30T02:01:08;1.33;;;1.27;;
55224;SDS011;41091;49.400;8.684;2022-09-30T02:03:37;2.45;;;1.33;;
55224;SDS011;41091;49.400;8.684;2022-09-30T02:06:06;3.35;;;1.80;;
55224;SDS011;41091;49.400;8.684;2022-09-30T02:11:22;4.28;;;1.88;;
55224;SDS011;41091;49.400;8.684;2022-09-30T02:13:52;3.90;;;1.10;;
55224;SDS011;41091;49.400;8.684;2022-09-30T02:16:25;3.67;;;1.65;;
55224;SDS011;41091;49.400;8.684;2022-09-30T02:19:02;1.40;;;1.30;;
55224;SDS011;41091;49.400;8.684;2022-09-30T02:21:31;3.92;;;1.88;;
55224;SDS011;41091;49.400;8.684;2022-09-30T02:24:01;6.05;;;1.40;;
55224;SDS011;41091;49.400;8.684;2022-09-30T02:26:30;1.83;;;1.42;;
55224;SDS011;41091;49.400;8.684;2022-09-30T02:29:02;6.90;;;1.83;;
55224;SDS011;41091;49.400;8.684;2022-09-30T02:31:33;1.70;;;1.20;;
55224;SDS011;41091;49.400;8.684;2022-09-30T02:34:10;7.43;;;1.33;;
55224;SDS011;41091;49.400;8.684;2022-09-30T02:39:33;3.95;;;1.27;;
55224;SDS011;41091;49.400;8.684;2022-09-30T02:42:14;1.75;;;1.52;;
55224;SDS011;41091;49.400;8.684;2022-09-30T02:44:48;4.55;;;1.98;;
55224;SDS011;41091;49.400;8.684;2022-09-30T02:47:19;2.53;;;1.50;;
55224;SDS011;41091;49.400;8.684;2022-09-30T02:52:52;2.20;;;2.00;;
55224;SDS011;41091;49.400;8.684;2022-09-30T02:55:31;9.18;;;2.63;;
55224;SDS011;41091;49.400;8.684;2022-09-30T03:00:37;3.08;;;2.28;;
55224;SDS011;41091;49.400;8.684;2022-09-30T03:03:06;4.32;;;2.47;;
55224;SDS011;41091;49.400;8.684;2022-09-30T03:05:36;5.03;;;1.92;;
55224;SDS011;41091;49.400;8.684;2022-09-30T03:08:02;2.55;;;2.45;;
55224;SDS011;41091;49.400;8.684;2022-09-30T03:10:28;2.15;;;2.03;;
55224;SDS011;41091;49.400;8.684;2022-09-30T03:31:33;3.05;;;2.85;;
55224;SDS011;41091;49.400;8.684;2022-09-30T03:37:27;7.22;;;3.50;;
55224;SDS011;41091;49.400;8.684;2022-09-30T03:40:01;3.07;;;2.77;;
55224;SDS011;41091;49.400;8.684;2022-09-30T03:42:37;3.58;;;2.95;;
55224;SDS011;41091;49.400;8.684;2022-09-30T03:47:50;5.57;;;3.30;;
55224;SDS011;41091;49.400;8.684;2022-09-30T03:50:18;7.60;;;3.45;;
55224;SDS011;41091;49.400;8.684;2022-09-30T03:52:45;12.15;;;2.92;;
55224;SDS011;41091;49.400;8.684;2022-09-30T03:55:11;5.63;;;2.92;;
55224;SDS011;41091;49.400;8.684;2022-09-30T03:57:39;3.45;;;2.35;;
55224;SDS011;41091;49.400;8.684;2022-09-30T04:00:09;2.58;;;2.38;;
55224;SDS011;41091;49.400;8.684;2022-09-30T04:02:35;5.10;;;2.50;;
55224;SDS011;41091;49.400;8.684;2022-09-30T04:05:03;2.83;;;2.63;;
55224;SDS011;41091;49.400;8.684;2022-09-30T04:07:30;14.52;;;3.42;;
55224;SDS011;41091;49.400;8.684;2022-09-30T04:09:55;3.50;;;2.60;;
55224;SDS011;41091;49.400;8.684;2022-09-30T04:12:23;3.80;;;3.15;;
55224;SDS011;41091;49.400;8.684;2022-09-30T04:14:48;5.03;;;3.40;;
55224;SDS011;41091;49.400;8.684;2022-09-30T04:17:13;5.75;;;2.97;;
55224;SDS011;41091;49.400;8.684;2022-09-30T04:19:41;5.72;;;2.50;;
55224;SDS011;41091;49.400;8.684;2022-09-30T04:22:06;3.08;;;2.70;;
55224;SDS011;41091;49.400;8.684;2022-09-30T04:24:32;8.05;;;2.75;;
55224;SDS011;41091;49.400;8.684;2022-09-30T04:26:58;3.88;;;2.35;;
55224;SDS011;41091;49.400;8.684;2022-09-30T04:29:25;3.50;;;2.50;;
55224;SDS011;41091;49.400;8.684;2022-09-30T04:31:51;3.65;;;2.35;;
55224;SDS011;41091;49.400;8.684;2022-09-30T04:34:16;3.40;;;3.08;;
55224;SDS011;41091;49.400;8.684;2022-09-30T04:36:41;4.38;;;2.88;;
55224;SDS011;41091;49.400;8.684;2022-09-30T04:39:07;14.30;;;4.28;;
55224;SDS011;41091;49.400;8.684;2022-09-30T04:41:37;8.07;;;3.47;;
55224;SDS011;41091;49.400;8.684;2022-09-30T04:44:05;6.50;;;3.25;;
55224;SDS011;41091;49.400;8.684;2022-09-30T04:46:35;7.05;;;3.90;;
55224;SDS011;41091;49.400;8.684;2022-09-30T04:49:01;7.18;;;3.53;;
55224;SDS011;41091;49.400;8.684;2022-09-30T04:51:28;5.53;;;3.70;;
55224;SDS011;41091;49.400;8.684;2022-09-30T04:53:55;3.67;;;3.40;;
55224;SDS011;41091;49.400;8.684;2022-09-30T04:56:24;10.57;;;4.47;;
55224;SDS011;41091;49.400;8.684;2022-09-30T04:58:52;7.93;;;4.18;;
55224;SDS011;41091;49.400;8.684;2022-09-30T05:01:18;3.83;;;3.55;;
55224;SDS011;41091;49.400;8.684;2022-09-30T05:03:44;4.20;;;3.88;;
55224;SDS011;41091;49.400;8.684;2022-09-30T05:06:12;5.68;;;4.53;;
55224;SDS011;41091;49.400;8.684;2022-09-30T05:08:41;4.03;;;3.63;;
55224;SDS011;41091;49.400;8.684;2022-09-30T05:11:09;5.10;;;3.35;;
55224;SDS011;41091;49.400;8.684;2022-09-30T05:13:41;8.20;;;4.53;;
55224;SDS011;41091;49.400;8.684;2022-09-30T05:16:13;4.35;;;3.95;;
55224;SDS011;41091;49.400;8.684;2022-09-30T05:18:41;4.85;;;4.10;;
55224;SDS011;41091;49.400;8.684;2022-09-30T05:21:10;6.93;;;4.45;;
55224;SDS011;41091;49.400;8.684;2022-09-30T05:23:36;4.63;;;4.10;;
55224;SDS011;41091;49.400;8.684;2022-09-30T05:26:02;5.00;;;4.60;;
55224;SDS011;41091;49.400;8.684;2022-09-30T06:59:24;8.88;;;6.53;;
55224;SDS011;41091;49.400;8.684;2022-09-30T07:01:52;11.10;;;7.53;;
55224;SDS011;41091;49.400;8.684;2022-09-30T07:04:20;9.55;;;6.07;;
55224;SDS011;41091;49.400;8.684;2022-09-30T07:06:48;7.30;;;5.50;;
55224;SDS011;41091;49.400;8.684;2022-09-30T07:09:18;12.65;;;5.10;;
55224;SDS011;41091;49.400;8.684;2022-09-30T07:11:46;7.88;;;6.00;;
55224;SDS011;41091;49.400;8.684;2022-09-30T07:14:12;9.80;;;5.82;;
55224;SDS011;41091;49.400;8.684;2022-09-30T07:16:40;7.55;;;5.30;;
55224;SDS011;41091;49.400;8.684;2022-09-30T07:19:05;9.82;;;5.50;;
55224;SDS011;41091;49.400;8.684;2022-09-30T07:21:31;7.88;;;5.72;;
55224;SDS011;41091;49.400;8.684;2022-09-30T07:23:57;5.72;;;5.28;;
55224;SDS011;41091;49.400;8.684;2022-09-30T07:26:26;7.47;;;5.95;;
55224;SDS011;41091;49.400;8.684;2022-09-30T07:28:52;6.55;;;5.88;;
55224;SDS011;41091;49.400;8.684;2022-09-30T07:31:19;11.02;;;5.63;;
55224;SDS011;41091;49.400;8.684;2022-09-30T07:33:47;9.68;;;5.53;;
55224;SDS011;41091;49.400;8.684;2022-09-30T07:36:15;5.72;;;5.13;;
55224;SDS011;41091;49.400;8.684;2022-09-30T07:38:42;7.60;;;5.68;;
55224;SDS011;41091;49.400;8.684;2022-09-30T07:41:10;6.18;;;5.55;;
55224;SDS011;41091;49.400;8.684;2022-09-30T07:43:37;14.75;;;6.07;;
55224;SDS011;41091;49.400;8.684;2022-09-30T07:46:17;7.35;;;5.97;;
55224;SDS011;41091;49.400;8.684;2022-09-30T07:48:45;6.75;;;6.15;;
55224;SDS011;41091;49.400;8.684;2022-09-30T07:51:16;12.00;;;7.43;;
55224;SDS011;41091;49.400;8.684;2022-09-30T07:53:50;11.75;;;7.53;;
55224;SDS011;41091;49.400;8.684;2022-09-30T07:56:22;16.73;;;9.95;;
55224;SDS011;41091;49.400;8.684;2022-09-30T07:58:51;19.70;;;8.45;;
55224;SDS011;41091;49.400;8.684;2022-09-30T08:01:21;10.45;;;7.10;;
55224;SDS011;41091;49.400;8.684;2022-09-30T08:03:47;10.07;;;7.07;;
55224;SDS011;41091;49.400;8.684;2022-09-30T08:06:14;8.13;;;6.50;;
55224;SDS011;41091;49.400;8.684;2022-09-30T08:08:43;9.65;;;6.93;;
55224;SDS011;41091;49.400;8.684;2022-09-30T08:11:10;8.80;;;7.22;;
55224;SDS011;41091;49.400;8.684;2022-09-30T08:13:36;11.13;;;5.72;;
55224;SDS011;41091;49.400;8.684;2022-09-30T08:16:02;7.82;;;5.53;;
55224;SDS011;41091;49.400;8.684;2022-09-30T08:18:30;6.68;;;5.85;;
55224;SDS011;41091;49.400;8.684;2022-09-30T08:20:56;7.75;;;5.50;;
55224;SDS011;41091;49.400;8.684;2022-09-30T08:23:26;8.02;;;5.68;;
55224;SDS011;41091;49.400;8.684;2022-09-30T08:25:52;8.32;;;5.70;;
55224;SDS011;41091;49.400;8.684;2022-09-30T08:28:24;13.73;;;6.53;;
55224;SDS011;41091;49.400;8.684;2022-09-30T08:30:50;9.93;;;6.15;;
55224;SDS011;41091;49.400;8.684;2022-09-30T08:33:15;9.98;;;7.32;;
55224;SDS011;41091;49.400;8.684;2022-09-30T08:35:43;10.35;;;7.25;;
55224;SDS011;41091;49.400;8.684;2022-09-30T08:38:08;8.73;;;6.78;;
55224;SDS011;41091;49.400;8.684;2022-09-30T08:40:35;7.95;;;6.65;;
55224;SDS011;41091;49.400;8.684;2022-09-30T08:43:20;9.32;;;6.63;;
55224;SDS011;41091;49.400;8.684;2022-09-30T08:48:55;8.60;;;5.40;;
55224;SDS011;41091;49.400;8.684;2022-09-30T08:51:36;5.88;;;5.32;;
55224;SDS011;41091;49.400;8.684;2022-09-30T08:54:06;7.75;;;5.55;;
55224;SDS011;41091;49.400;8.684;2022-09-30T08:56:39;10.93;;;6.03;;
55224;SDS011;41091;49.400;8.684;2022-09-30T09:01:33;6.63;;;5.90;;
55224;SDS011;41091;49.400;8.684;2022-09-30T09:04:00;9.13;;;6.53;;
55224;SDS011;41091;49.400;8.684;2022-09-30T09:20:53;12.07;;;5.65;;
55224;SDS011;41091;49.400;8.684;2022-09-30T09:23:23;6.50;;;5.95;;
55224;SDS011;41091;49.400;8.684;2022-09-30T09:25:52;9.23;;;6.22;;
55224;SDS011;41091;49.400;8.684;2022-09-30T09:28:22;6.93;;;5.78;;
55224;SDS011;41091;49.400;8.684;2022-09-30T09:30:51;9.43;;;5.00;;
55224;SDS011;41091;49.400;8.684;2022-09-30T09:33:25;8.00;;;5.50;;
55224;SDS011;41091;49.400;8.684;2022-09-30T09:47:16;12.05;;;6.68;;
55224;SDS011;41091;49.400;8.684;2022-09-30T09:54:54;10.68;;;6.28;;
55224;SDS011;41091;49.400;8.684;2022-09-30T09:57:21;12.00;;;5.88;;
55224;SDS011;41091;49.400;8.684;2022-09-30T09:59:57;9.88;;;6.22;;
55224;SDS011;41091;49.400;8.684;2022-09-30T10:02:43;11.30;;;6.45;;
55224;SDS011;41091;49.400;8.684;2022-09-30T10:05:15;11.55;;;6.78;;
55224;SDS011;41091;49.400;8.684;2022-09-30T10:07:50;7.32;;;6.45;;
55224;SDS011;41091;49.400;8.684;2022-09-30T10:10:36;9.90;;;7.07;;
55224;SDS011;41091;49.400;8.684;2022-09-30T10:13:15;13.10;;;7.55;;
55224;SDS011;41091;49.400;8.684;2022-09-30T10:15:43;12.38;;;7.30;;
55224;SDS011;41091;49.400;8.684;2022-09-30T10:18:15;11.70;;;7.30;;
55224;SDS011;41091;49.400;8.684;2022-09-30T10:20:48;10.75;;;7.35;;
55224;SDS011;41091;49.400;8.684;2022-09-30T10:23:19;9.82;;;6.70;;
55224;SDS011;41091;49.400;8.684;2022-09-30T10:25:54;9.40;;;6.25;;
55224;SDS011;41091;49.400;8.684;2022-09-30T10:28:22;9.07;;;6.95;;
55224;SDS011;41091;49.400;8.684;2022-09-30T10:35:54;6.60;;;5.93;;
55224;SDS011;41091;49.400;8.684;2022-09-30T10:38:22;8.35;;;6.20;;
55224;SDS011;41091;49.400;8.684;2022-09-30T10:40:49;6.47;;;5.88;;
55224;SDS011;41091;49.400;8.684;2022-09-30T10:43:22;10.23;;;7.03;;
55224;SDS011;41091;49.400;8.684;2022-09-30T10:45:50;12.07;;;6.20;;
55224;SDS011;41091;49.400;8.684;2022-09-30T10:48:17;7.72;;;5.18;;
55224;SDS011;41091;49.400;8.684;2022-09-30T10:50:51;8.80;;;4.88;;
55224;SDS011;41091;49.400;8.684;2022-09-30T10:53:21;13.88;;;5.40;;
55224;SDS011;41091;49.400;8.684;2022-09-30T10:55:51;12.32;;;5.53;;
55224;SDS011;41091;49.400;8.684;2022-09-30T10:58:21;8.18;;;4.30;;
55224;SDS011;41091;49.400;8.684;2022-09-30T11:00:56;6.07;;;4.70;;
55224;SDS011;41091;49.400;8.684;2022-09-30T11:03:29;7.20;;;5.30;;
55224;SDS011;41091;49.400;8.684;2022-09-30T11:06:02;9.68;;;4.97;;
55224;SDS011;41091;49.400;8.684;2022-09-30T11:08:38;5.00;;;4.23;;
55224;SDS011;41091;49.400;8.684;2022-09-30T11:11:17;11.23;;;5.85;;
55224;SDS011;41091;49.400;8.684;2022-09-30T11:24:55;8.13;;;3.53;;
55224;SDS011;41091;49.400;8.684;2022-09-30T11:30:12;6.35;;;4.18;;
55224;SDS011;41091;49.400;8.684;2022-09-30T11:36:21;4.50;;;3.70;;
55224;SDS011;41091;49.400;8.684;2022-09-30T11:41:46;6.30;;;3.90;;
55224;SDS011;41091;49.400;8.684;2022-09-30T11:47:00;5.75;;;2.80;;
55224;SDS011;41091;49.400;8.684;2022-09-30T11:49:41;7.07;;;2.83;;
55224;SDS011;41091;49.400;8.684;2022-09-30T12:00:35;2.60;;;2.38;;
55224;SDS011;41091;49.400;8.684;2022-09-30T12:03:11;4.50;;;3.38;;
55224;SDS011;41091;49.400;8.684;2022-09-30T12:05:48;3.58;;;3.05;;
55224;SDS011;41091;49.400;8.684;2022-09-30T12:08:23;3.97;;;2.70;;
55224;SDS011;41091;49.400;8.684;2022-09-30T12:13:24;4.13;;;2.50;;
55224;SDS011;41091;49.400;8.684;2022-09-30T12:15:52;6.95;;;2.78;;
55224;SDS011;41091;49.400;8.684;2022-09-30T12:18:36;4.25;;;2.28;;
55224;SDS011;41091;49.400;8.684;2022-09-30T12:21:50;5.57;;;2.63;;
55224;SDS011;41091;49.400;8.684;2022-09-30T12:23:59;4.40;;;1.80;;
55224;SDS011;41091;49.400;8.684;2022-09-30T12:26:29;4.22;;;2.13;;
55224;SDS011;41091;49.400;8.684;2022-09-30T12:29:14;2.83;;;1.70;;
55224;SDS011;41091;49.400;8.684;2022-09-30T12:46:08;5.03;;;3.13;;
55224;SDS011;41091;49.400;8.684;2022-09-30T12:51:31;3.65;;;2.40;;
55224;SDS011;41091;49.400;8.684;2022-09-30T12:54:05;6.70;;;2.15;;
55224;SDS011;41091;49.400;8.684;2022-09-30T12:56:42;2.38;;;1.92;;
55224;SDS011;41091;49.400;8.684;2022-09-30T12:59:10;2.38;;;1.80;;
55224;SDS011;41091;49.400;8.684;2022-09-30T13:01:37;2.55;;;1.83;;
55224;SDS011;41091;49.400;8.684;2022-09-30T13:11:44;1.95;;;1.85;;
55224;SDS011;41091;49.400;8.684;2022-09-30T13:27:34;2.55;;;2.20;;
55224;SDS011;41091;49.400;8.684;2022-09-30T13:30:00;3.25;;;1.80;;
55224;SDS011;41091;49.400;8.684;2022-09-30T13:32:30;4.53;;;2.20;;
55224;SDS011;41091;49.400;8.684;2022-09-30T13:35:23;2.80;;;1.75;;
55224;SDS011;41091;49.400;8.684;2022-09-30T13:46:12;4.72;;;1.80;;
55224;SDS011;41091;49.400;8.684;2022-09-30T13:48:59;5.53;;;1.83;;
55224;SDS011;41091;49.400;8.684;2022-09-30T13:51:28;4.20;;;1.67;;
55224;SDS011;41091;49.400;8.684;2022-09-30T13:53:57;1.35;;;1.13;;
55224;SDS011;41091;49.400;8.684;2022-09-30T13:56:25;13.98;;;1.40;;
55224;SDS011;41091;49.400;8.684;2022-09-30T14:19:15;6.15;;;1.30;;
55224;SDS011;41091;49.400;8.684;2022-09-30T14:22:08;1.83;;;1.45;;
55224;SDS011;41091;49.400;8.684;2022-09-30T14:24:37;3.53;;;1.80;;
55224;SDS011;41091;49.400;8.684;2022-09-30T14:35:10;2.30;;;1.30;;
55224;SDS011;41091;49.400;8.684;2022-09-30T14:37:43;6.15;;;1.95;;
55224;SDS011;41091;49.400;8.684;2022-09-30T14:40:14;17.42;;;2.22;;
55224;SDS011;41091;49.400;8.684;2022-09-30T14:42:41;1.42;;;1.38;;
55224;SDS011;41091;49.400;8.684;2022-09-30T14:45:12;1.58;;;1.30;;
55224;SDS011;41091;49.400;8.684;2022-09-30T14:47:43;1.88;;;1.30;;
55224;SDS011;41091;49.400;8.684;2022-09-30T14:50:12;5.22;;;1.95;;
55224;SDS011;41091;49.400;8.684;2022-09-30T14:57:51;4.30;;;1.20;;
55224;SDS011;41091;49.400;8.684;2022-09-30T15:00:31;3.03;;;1.20;;
55224;SDS011;41091;49.400;8.684;2022-09-30T15:02:57;1.38;;;1.10;;
55224;SDS011;41091;49.400;8.684;2022-09-30T15:05:23;1.67;;;1.13;;
55224;SDS011;41091;49.400;8.684;2022-09-30T15:07:49;3.00;;;1.85;;
55224;SDS011;41091;49.400;8.684;2022-09-30T15:10:22;2.67;;;1.27;;
55224;SDS011;41091;49.400;8.684;2022-09-30T15:12:50;3.25;;;0.65;;
55224;SDS011;41091;49.400;8.684;2022-09-30T15:17:50;1.70;;;0.80;;
55224;SDS011;41091;49.400;8.684;2022-09-30T15:22:47;0.93;;;0.75;;
55224;SDS011;41091;49.400;8.684;2022-09-30T15:25:13;2.17;;;1.00;;
55224;SDS011;41091;49.400;8.684;2022-09-30T15:27:40;1.50;;;0.90;;
55224;SDS011;41091;49.400;8.684;2022-09-30T15:32:37;1.23;;;0.80;;
55224;SDS011;41091;49.400;8.684;2022-09-30T15:35:06;0.88;;;0.88;;
55224;SDS011;41091;49.400;8.684;2022-09-30T15:37:44;2.15;;;1.10;;
55224;SDS011;41091;49.400;8.684;2022-09-30T15:40:20;1.80;;;1.00;;
55224;SDS011;41091;49.400;8.684;2022-09-30T15:43:07;1.63;;;1.10;;
55224;SDS011;41091;49.400;8.684;2022-09-30T15:45:40;0.85;;;0.73;;
55224;SDS011;41091;49.400;8.684;2022-09-30T15:53:13;1.33;;;1.15;;
55224;SDS011;41091;49.400;8.684;2022-09-30T15:55:43;3.40;;;1.17;;
55224;SDS011;41091;49.400;8.684;2022-09-30T16:00:53;1.80;;;1.67;;
55224;SDS011;41091;49.400;8.684;2022-09-30T16:06:25;1.98;;;1.23;;
55224;SDS011;41091;49.400;8.684;2022-09-30T16:08:51;3.53;;;1.27;;
55224;SDS011;41091;49.400;8.684;2022-09-30T16:11:26;1.83;;;0.82;;
55224;SDS011;41091;49.400;8.684;2022-09-30T16:13:53;3.45;;;1.02;;
55224;SDS011;41091;49.400;8.684;2022-09-30T16:16:22;1.33;;;1.10;;
55224;SDS011;41091;49.400;8.684;2022-09-30T16:18:50;1.50;;;0.70;;
55224;SDS011;41091;49.400;8.684;2022-09-30T16:23:54;1.13;;;1.02;;
55224;SDS011;41091;49.400;8.684;2022-09-30T16:26:21;2.83;;;1.40;;
55224;SDS011;41091;49.400;8.684;2022-09-30T16:28:52;3.78;;;1.58;;
55224;SDS011;41091;49.400;8.684;2022-09-30T16:31:22;2.05;;;1.00;;
55224;SDS011;41091;49.400;8.684;2022-09-30T16:33:50;5.93;;;1.38;;
55224;SDS011;41091;49.400;8.684;2022-09-30T16:36:20;1.58;;;1.00;;
55224;SDS011;41091;49.400;8.684;2022-09-30T16:38:46;6.43;;;1.13;;
55224;SDS011;41091;49.400;8.684;2022-09-30T16:41:11;3.28;;;1.58;;
55224;SDS011;41091;49.400;8.684;2022-09-30T16:43:37;4.13;;;1.60;;
55224;SDS011;41091;49.400;8.684;2022-09-30T16:46:03;1.45;;;1.25;;
55224;SDS011;41091;49.400;8.684;2022-09-30T16:48:28;2.00;;;1.48;;
55224;SDS011;41091;49.400;8.684;2022-09-30T16:53:27;2.05;;;1.08;;
55224;SDS011;41091;49.400;8.684;2022-09-30T16:55:53;5.60;;;1.50;;
55224;SDS011;41091;49.400;8.684;2022-09-30T16:58:20;4.88;;;1.20;;
55224;SDS011;41091;49.400;8.684;2022-09-30T17:00:46;1.90;;;1.58;;
55224;SDS011;41091;49.400;8.684;2022-09-30T17:03:12;7.28;;;5.60;;
55224;SDS011;41091;49.400;8.684;2022-09-30T17:05:39;7.05;;;2.83;;
55224;SDS011;41091;49.400;8.684;2022-09-30T17:08:08;2.42;;;2.20;;
55224;SDS011;41091;49.400;8.684;2022-09-30T17:10:35;6.43;;;5.65;;
55224;SDS011;41091;49.400;8.684;2022-09-30T17:13:00;7.72;;;3.97;;
55224;SDS011;41091;49.400;8.684;2022-09-30T17:15:30;4.25;;;3.28;;
55224;SDS011;41091;49.400;8.684;2022-09-30T17:18:03;4.30;;;3.60;;
55224;SDS011;41091;49.400;8.684;2022-09-30T17:20:31;5.97;;;4.05;;
55224;SDS011;41091;49.400;8.684;2022-09-30T17:22:59;6.18;;;4.57;;
55224;SDS011;41091;49.400;8.684;2022-09-30T17:25:26;8.85;;;4.88;;
55224;SDS011;41091;49.400;8.684;2022-09-30T17:27:52;7.05;;;5.18;;
55224;SDS011;41091;49.400;8.684;2022-09-30T17:30:18;9.02;;;5.53;;
55224;SDS011;41091;49.400;8.684;2022-09-30T17:32:44;11.00;;;5.47;;
55224;SDS011;41091;49.400;8.684;2022-09-30T17:35:10;4.95;;;4.50;;
55224;SDS011;41091;49.400;8.684;2022-09-30T17:37:36;4.35;;;3.60;;
55224;SDS011;41091;49.400;8.684;2022-09-30T17:40:02;4.80;;;4.28;;
55224;SDS011;41091;49.400;8.684;2022-09-30T17:42:54;6.22;;;2.80;;
55224;SDS011;41091;49.400;8.684;2022-09-30T17:45:31;2.58;;;2.13;;
55224;SDS011;41091;49.400;8.684;2022-09-30T17:48:00;2.00;;;1.90;;
55224;SDS011;41091;49.400;8.684;2022-09-30T17:50:26;3.20;;;2.15;;
55224;SDS011;41091;49.400;8.684;2022-09-30T17:52:51;1.80;;;1.70;;
55224;SDS011;41091;49.400;8.684;2022-09-30T17:55:18;2.63;;;1.75;;
55224;SDS011;41091;49.400;8.684;2022-09-30T17:57:43;6.38;;;2.15;;
55224;SDS011;41091;49.400;8.684;2022-09-30T18:00:11;7.70;;;2.03;;
55224;SDS011;41091;49.400;8.684;2022-09-30T18:02:39;5.63;;;2.10;;
55224;SDS011;41091;49.400;8.684;2022-09-30T18:05:08;2.88;;;2.55;;
55224;SDS011;41091;49.400;8.684;2022-09-30T18:07:36;4.75;;;2.25;;
55224;SDS011;41091;49.400;8.684;2022-09-30T18:10:01;2.42;;;2.20;;
55224;SDS011;41091;49.400;8.684;2022-09-30T18:12:29;2.47;;;1.45;;
55224;SDS011;41091;49.400;8.684;2022-09-30T18:14:54;3.60;;;1.70;;
55224;SDS011;41091;49.400;8.684;2022-09-30T18:17:23;3.28;;;1.63;;
55224;SDS011;41091;49.400;8.684;2022-09-30T18:19:49;4.05;;;1.58;;
55224;SDS011;41091;49.400;8.684;2022-09-30T18:22:14;2.00;;;1.50;;
55224;SDS011;41091;49.400;8.684;2022-09-30T18:24:40;8.23;;;1.92;;
55224;SDS011;41091;49.400;8.684;2022-09-30T18:27:26;1.30;;;1.20;;
55224;SDS011;41091;49.400;8.684;2022-09-30T18:29:52;4.25;;;2.17;;
55224;SDS011;41091;49.400;8.684;2022-09-30T18:32:22;2.85;;;1.50;;
55224;SDS011;41091;49.400;8.684;2022-09-30T18:34:47;3.42;;;2.22;;
55224;SDS011;41091;49.400;8.684;2022-09-30T18:37:12;3.00;;;1.65;;
55224;SDS011;41091;49.400;8.684;2022-09-30T18:39:38;4.40;;;2.20;;
55224;SDS011;41091;49.400;8.684;2022-09-30T18:42:04;4.25;;;2.30;;
55224;SDS011;41091;49.400;8.684;2022-09-30T18:44:31;4.95;;;2.85;;
55224;SDS011;41091;49.400;8.684;2022-09-30T18:46:57;7.07;;;2.90;;
55224;SDS011;41091;49.400;8.684;2022-09-30T18:49:23;3.78;;;2.83;;
55224;SDS011;41091;49.400;8.684;2022-09-30T18:51:49;5.88;;;3.13;;
55224;SDS011;41091;49.400;8.684;2022-09-30T18:54:14;10.60;;;2.92;;
55224;SDS011;41091;49.400;8.684;2022-09-30T18:56:40;4.45;;;2.63;;
55224;SDS011;41091;49.400;8.684;2022-09-30T18:59:07;4.63;;;2.50;;
55224;SDS011;41091;49.400;8.684;2022-09-30T19:04:03;2.43;;;2.17;;
55224;SDS011;41091;49.400;8.684;2022-09-30T19:06:28;5.28;;;2.25;;
55224;SDS011;41091;49.400;8.684;2022-09-30T19:08:54;4.05;;;2.13;;
55224;SDS011;41091;49.400;8.684;2022-09-30T19:11:19;5.70;;;2.28;;
55224;SDS011;41091;49.400;8.684;2022-09-30T19:13:46;5.20;;;2.13;;
55224;SDS011;41091;49.400;8.684;2022-09-30T19:16:22;8.05;;;2.58;;
55224;SDS011;41091;49.400;8.684;2022-09-30T19:18:50;4.97;;;2.60;;
55224;SDS011;41091;49.400;8.684;2022-09-30T19:21:15;5.07;;;2.25;;
55224;SDS011;41091;49.400;8.684;2022-09-30T19:23:46;2.78;;;1.92;;
55224;SDS011;41091;49.400;8.684;2022-09-30T19:26:14;4.07;;;1.70;;
55224;SDS011;41091;49.400;8.684;2022-09-30T19:28:40;2.55;;;1.83;;
55224;SDS011;41091;49.400;8.684;2022-09-30T19:31:14;7.72;;;2.30;;
55224;SDS011;41091;49.400;8.684;2022-09-30T19:33:41;2.90;;;1.77;;
55224;SDS011;41091;49.400;8.684;2022-09-30T19:36:10;5.18;;;2.78;;
55224;SDS011;41091;49.400;8.684;2022-09-30T19:38:41;2.75;;;2.35;;
55224;SDS011;41091;49.400;8.684;2022-09-30T19:41:10;4.40;;;2.75;;
55224;SDS011;41091;49.400;8.684;2022-09-30T19:43:36;2.38;;;2.22;;
55224;SDS011;41091;49.400;8.684;2022-09-30T19:46:05;4.68;;;2.53;;
55224;SDS011;41091;49.400;8.684;2022-09-30T19:48:31;6.80;;;2.72;;
55224;SDS011;41091;49.400;8.684;2022-09-30T19:51:05;2.20;;;2.00;;
55224;SDS011;41091;49.400;8.684;2022-09-30T19:53:33;6.50;;;2.65;;
55224;SDS011;41091;49.400;8.684;2022-09-30T19:58:30;4.78;;;2.63;;
55224;SDS011;41091;49.400;8.684;2022-09-30T20:01:01;4.82;;;2.38;;
55224;SDS011;41091;49.400;8.684;2022-09-30T20:03:30;2.55;;;2.08;;
55224;SDS011;41091;49.400;8.684;2022-09-30T20:06:02;2.42;;;2.22;;
55224;SDS011;41091;49.400;8.684;2022-09-30T20:08:33;2.50;;;2.30;;
55224;SDS011;41091;49.400;8.684;2022-09-30T20:11:06;4.53;;;2.45;;
55224;SDS011;41091;49.400;8.684;2022-09-30T20:13:32;6.65;;;2.53;;
55224;SDS011;41091;49.400;8.684;2022-09-30T20:15:58;6.70;;;2.50;;
55224;SDS011;41091;49.400;8.684;2022-09-30T20:18:29;6.25;;;2.10;;
55224;SDS011;41091;49.400;8.684;2022-09-30T20:23:24;3.60;;;2.28;;
55224;SDS011;41091;49.400;8.684;2022-09-30T20:25:53;15.07;;;2.50;;
55224;SDS011;41091;49.400;8.684;2022-09-30T20:28:22;5.43;;;2.42;;
55224;SDS011;41091;49.400;8.684;2022-09-30T20:30:47;7.35;;;2.83;;
55224;SDS011;41091;49.400;8.684;2022-09-30T20:33:19;2.58;;;2.38;;
55224;SDS011;41091;49.400;8.684;2022-09-30T20:35:46;10.35;;;3.05;;
55224;SDS011;41091;49.400;8.684;2022-09-30T20:38:14;6.13;;;2.40;;
55224;SDS011;41091;49.400;8.684;2022-09-30T20:40:41;4.32;;;2.45;;
55224;SDS011;41091;49.400;8.684;2022-09-30T20:43:07;6.93;;;3.28;;